sensor_id;sensor_type;location;lat;lon;timestamp;temperature;humidity
31379;DHT22;61664;48.112;11.662;2022-10-16T00:01:40;16.40;79.50
31379;DHT22;61664;48.112;11.662;2022-10-16T00:04:08;16.40;79.60
31379;DHT22;61664;48.112;11.662;2022-10-16T00:06:35;16.30;79.70
31379;DHT22;61664;48.112;11.662;2022-10-16T00:09:02;16.30;79.70
31379;DHT22;61664;48.112;11.662;2022-10-16T00:11:35;16.30;79.80
31379;DHT22;61664;48.112;11.662;2022-10-16T00:14:08;16.30;79.70
31379;DHT22;61664;48.112;11.662;2022-10-16T00:16:37;16.30;79.80
31379;DHT22;61664;48.112;11.662;2022-10-16T00:19:05;16.30;80.40
31379;DHT22;61664;48.112;11.662;2022-10-16T00:21:32;16.20;79.90
31379;DHT22;61664;48.112;11.662;2022-10-16T00:24:02;16.20;79.90
31379;DHT22;61664;48.112;11.662;2022-10-16T00:26:33;16.20;79.80
31379;DHT22;61664;48.112;11.662;2022-10-16T00:29:01;16.20;79.90
31379;DHT22;61664;48.112;11.662;2022-10-16T00:31:28;16.20;79.90
31379;DHT22;61664;48.112;11.662;2022-10-16T00:33:56;16.10;79.80
31379;DHT22;61664;48.112;11.662;2022-10-16T00:36:24;16.10;79.80
31379;DHT22;61664;48.112;11.662;2022-10-16T00:38:54;16.10;79.80
31379;DHT22;61664;48.112;11.662;2022-10-16T00:41:24;16.10;79.70
31379;DHT22;61664;48.112;11.662;2022-10-16T00:44:00;16.00;79.70
31379;DHT22;61664;48.112;11.662;2022-10-16T00:46:35;16.00;79.20
31379;DHT22;61664;48.112;11.662;2022-10-16T00:49:10;16.00;79.70
31379;DHT22;61664;48.112;11.662;2022-10-16T00:51:42;16.00;79.90
31379;DHT22;61664;48.112;11.662;2022-10-16T00:54:20;15.90;79.90
31379;DHT22;61664;48.112;11.662;2022-10-16T00:56:50;15.90;79.70
31379;DHT22;61664;48.112;11.662;2022-10-16T00:59:27;15.90;80.10
31379;DHT22;61664;48.112;11.662;2022-10-16T01:01:56;15.90;80.30
31379;DHT22;61664;48.112;11.662;2022-10-16T01:04:25;15.90;80.40
31379;DHT22;61664;48.112;11.662;2022-10-16T01:07:06;15.90;80.50
31379;DHT22;61664;48.112;11.662;2022-10-16T01:12:41;15.90;80.40
31379;DHT22;61664;48.112;11.662;2022-10-16T01:18:54;15.80;80.10
31379;DHT22;61664;48.112;11.662;2022-10-16T01:21:29;15.80;79.50
31379;DHT22;61664;48.112;11.662;2022-10-16T01:24:17;15.80;80.50
31379;DHT22;61664;48.112;11.662;2022-10-16T01:27:30;15.80;79.90
31379;DHT22;61664;48.112;11.662;2022-10-16T01:33:10;15.80;80.90
31379;DHT22;61664;48.112;11.662;2022-10-16T01:35:49;15.80;80.50
31379;DHT22;61664;48.112;11.662;2022-10-16T01:38:35;15.80;80.70
31379;DHT22;61664;48.112;11.662;2022-10-16T01:44:10;15.90;79.60
31379;DHT22;61664;48.112;11.662;2022-10-16T01:46:46;15.90;79.40
31379;DHT22;61664;48.112;11.662;2022-10-16T01:49:16;15.80;80.40
31379;DHT22;61664;48.112;11.662;2022-10-16T01:51:47;15.80;80.50
31379;DHT22;61664;48.112;11.662;2022-10-16T01:54:19;15.80;80.40
31379;DHT22;61664;48.112;11.662;2022-10-16T01:56:49;15.80;80.30
31379;DHT22;61664;48.112;11.662;2022-10-16T01:59:20;15.80;80.30
31379;DHT22;61664;48.112;11.662;2022-10-16T02:01:52;15.80;80.20
31379;DHT22;61664;48.112;11.662;2022-10-16T02:04:34;15.80;80.10
31379;DHT22;61664;48.112;11.662;2022-10-16T02:07:05;15.70;79.80
31379;DHT22;61664;48.112;11.662;2022-10-16T02:09:34;15.70;80.10
31379;DHT22;61664;48.112;11.662;2022-10-16T02:12:08;15.70;80.00
31379;DHT22;61664;48.112;11.662;2022-10-16T02:14:40;15.70;79.70
31379;DHT22;61664;48.112;11.662;2022-10-16T02:17:16;15.70;80.20
31379;DHT22;61664;48.112;11.662;2022-10-16T02:19:45;15.60;79.60
31379;DHT22;61664;48.112;11.662;2022-10-16T02:22:30;15.60;80.30
31379;DHT22;61664;48.112;11.662;2022-10-16T02:25:22;15.60;79.50
31379;DHT22;61664;48.112;11.662;2022-10-16T02:28:13;15.60;79.50
31379;DHT22;61664;48.112;11.662;2022-10-16T02:30:48;15.50;79.60
31379;DHT22;61664;48.112;11.662;2022-10-16T02:33:18;15.50;80.40
31379;DHT22;61664;48.112;11.662;2022-10-16T02:35:47;15.40;80.50
31379;DHT22;61664;48.112;11.662;2022-10-16T02:38:19;15.50;80.70
31379;DHT22;61664;48.112;11.662;2022-10-16T02:40:48;15.40;80.70
31379;DHT22;61664;48.112;11.662;2022-10-16T02:43:16;15.40;80.90
31379;DHT22;61664;48.112;11.662;2022-10-16T02:45:43;15.40;80.90
31379;DHT22;61664;48.112;11.662;2022-10-16T02:48:10;15.40;81.00
31379;DHT22;61664;48.112;11.662;2022-10-16T02:50:36;15.40;81.00
31379;DHT22;61664;48.112;11.662;2022-10-16T02:53:03;15.40;81.00
31379;DHT22;61664;48.112;11.662;2022-10-16T02:55:30;15.40;81.00
31379;DHT22;61664;48.112;11.662;2022-10-16T02:57:57;15.40;81.00
31379;DHT22;61664;48.112;11.662;2022-10-16T03:00:24;15.40;81.50
31379;DHT22;61664;48.112;11.662;2022-10-16T03:02:51;15.40;81.00
31379;DHT22;61664;48.112;11.662;2022-10-16T03:05:18;15.40;81.10
31379;DHT22;61664;48.112;11.662;2022-10-16T03:07:44;15.30;81.10
31379;DHT22;61664;48.112;11.662;2022-10-16T03:10:12;15.30;81.00
31379;DHT22;61664;48.112;11.662;2022-10-16T03:12:38;15.30;81.00
31379;DHT22;61664;48.112;11.662;2022-10-16T03:15:06;15.30;80.90
31379;DHT22;61664;48.112;11.662;2022-10-16T03:17:33;15.30;80.90
31379;DHT22;61664;48.112;11.662;2022-10-16T03:20:01;15.30;80.90
31379;DHT22;61664;48.112;11.662;2022-10-16T03:22:28;15.30;80.80
31379;DHT22;61664;48.112;11.662;2022-10-16T03:24:55;15.30;80.90
31379;DHT22;61664;48.112;11.662;2022-10-16T03:27:22;15.30;80.80
31379;DHT22;61664;48.112;11.662;2022-10-16T03:29:49;15.30;80.80
31379;DHT22;61664;48.112;11.662;2022-10-16T03:32:16;15.30;80.80
31379;DHT22;61664;48.112;11.662;2022-10-16T03:34:43;15.30;80.80
31379;DHT22;61664;48.112;11.662;2022-10-16T03:37:10;15.30;80.80
31379;DHT22;61664;48.112;11.662;2022-10-16T03:39:37;15.20;80.70
31379;DHT22;61664;48.112;11.662;2022-10-16T03:42:04;15.20;80.80
31379;DHT22;61664;48.112;11.662;2022-10-16T03:44:31;15.20;80.90
31379;DHT22;61664;48.112;11.662;2022-10-16T03:46:58;15.20;81.00
31379;DHT22;61664;48.112;11.662;2022-10-16T03:49:24;15.20;81.20
31379;DHT22;61664;48.112;11.662;2022-10-16T03:51:51;15.20;81.40
31379;DHT22;61664;48.112;11.662;2022-10-16T03:54:18;15.20;81.50
31379;DHT22;61664;48.112;11.662;2022-10-16T03:56:45;15.20;81.50
31379;DHT22;61664;48.112;11.662;2022-10-16T03:59:12;15.20;81.70
31379;DHT22;61664;48.112;11.662;2022-10-16T04:01:39;15.20;81.80
31379;DHT22;61664;48.112;11.662;2022-10-16T04:04:06;15.30;81.90
31379;DHT22;61664;48.112;11.662;2022-10-16T04:06:33;15.30;81.90
31379;DHT22;61664;48.112;11.662;2022-10-16T04:09:00;15.30;81.90
31379;DHT22;61664;48.112;11.662;2022-10-16T04:11:27;15.30;81.80
31379;DHT22;61664;48.112;11.662;2022-10-16T04:13:54;15.30;81.70
31379;DHT22;61664;48.112;11.662;2022-10-16T04:16:21;15.40;81.70
31379;DHT22;61664;48.112;11.662;2022-10-16T04:18:48;15.40;81.60
31379;DHT22;61664;48.112;11.662;2022-10-16T04:21:14;15.40;81.60
31379;DHT22;61664;48.112;11.662;2022-10-16T04:23:42;15.40;81.60
31379;DHT22;61664;48.112;11.662;2022-10-16T04:26:09;15.40;81.50
31379;DHT22;61664;48.112;11.662;2022-10-16T04:28:36;15.40;81.50
31379;DHT22;61664;48.112;11.662;2022-10-16T04:31:05;15.40;81.50
31379;DHT22;61664;48.112;11.662;2022-10-16T04:33:32;15.40;81.50
31379;DHT22;61664;48.112;11.662;2022-10-16T04:36:00;15.50;81.50
31379;DHT22;61664;48.112;11.662;2022-10-16T04:38:28;15.50;81.50
31379;DHT22;61664;48.112;11.662;2022-10-16T04:40:55;15.50;81.50
31379;DHT22;61664;48.112;11.662;2022-10-16T04:43:22;15.50;81.50
31379;DHT22;61664;48.112;11.662;2022-10-16T04:45:49;15.60;81.40
31379;DHT22;61664;48.112;11.662;2022-10-16T04:48:18;15.50;81.20
31379;DHT22;61664;48.112;11.662;2022-10-16T04:50:45;15.50;81.20
31379;DHT22;61664;48.112;11.662;2022-10-16T04:53:17;15.60;81.10
31379;DHT22;61664;48.112;11.662;2022-10-16T04:55:44;15.60;81.20
31379;DHT22;61664;48.112;11.662;2022-10-16T04:58:10;15.60;81.00
31379;DHT22;61664;48.112;11.662;2022-10-16T05:00:37;15.60;81.10
31379;DHT22;61664;48.112;11.662;2022-10-16T05:03:05;15.60;81.10
31379;DHT22;61664;48.112;11.662;2022-10-16T05:05:35;15.60;81.20
31379;DHT22;61664;48.112;11.662;2022-10-16T05:08:03;15.60;81.20
31379;DHT22;61664;48.112;11.662;2022-10-16T05:10:30;15.70;81.20
31379;DHT22;61664;48.112;11.662;2022-10-16T05:12:57;15.70;81.20
31379;DHT22;61664;48.112;11.662;2022-10-16T05:15:24;15.70;81.20
31379;DHT22;61664;48.112;11.662;2022-10-16T05:17:55;15.70;81.20
31379;DHT22;61664;48.112;11.662;2022-10-16T05:20:22;15.70;80.70
31379;DHT22;61664;48.112;11.662;2022-10-16T05:22:49;15.70;81.10
31379;DHT22;61664;48.112;11.662;2022-10-16T05:25:17;15.70;81.00
31379;DHT22;61664;48.112;11.662;2022-10-16T05:27:47;15.70;81.10
31379;DHT22;61664;48.112;11.662;2022-10-16T05:30:16;15.80;80.80
31379;DHT22;61664;48.112;11.662;2022-10-16T05:32:48;15.80;81.20
31379;DHT22;61664;48.112;11.662;2022-10-16T05:35:17;15.80;80.60
31379;DHT22;61664;48.112;11.662;2022-10-16T05:37:45;15.90;81.20
31379;DHT22;61664;48.112;11.662;2022-10-16T05:40:13;15.80;81.30
31379;DHT22;61664;48.112;11.662;2022-10-16T05:42:41;15.90;81.30
31379;DHT22;61664;48.112;11.662;2022-10-16T05:45:10;15.90;81.20
31379;DHT22;61664;48.112;11.662;2022-10-16T05:47:38;15.90;81.10
31379;DHT22;61664;48.112;11.662;2022-10-16T05:50:06;15.90;81.20
31379;DHT22;61664;48.112;11.662;2022-10-16T05:52:33;16.00;81.20
31379;DHT22;61664;48.112;11.662;2022-10-16T05:55:00;16.00;81.00
31379;DHT22;61664;48.112;11.662;2022-10-16T05:57:27;16.00;80.90
31379;DHT22;61664;48.112;11.662;2022-10-16T05:59:54;16.00;80.80
31379;DHT22;61664;48.112;11.662;2022-10-16T06:02:21;16.00;80.70
31379;DHT22;61664;48.112;11.662;2022-10-16T06:04:48;16.10;80.70
31379;DHT22;61664;48.112;11.662;2022-10-16T06:07:15;16.10;80.70
31379;DHT22;61664;48.112;11.662;2022-10-16T06:09:42;16.10;80.60
31379;DHT22;61664;48.112;11.662;2022-10-16T06:12:09;16.10;80.70
31379;DHT22;61664;48.112;11.662;2022-10-16T06:14:35;16.10;80.80
31379;DHT22;61664;48.112;11.662;2022-10-16T06:17:02;16.10;80.90
31379;DHT22;61664;48.112;11.662;2022-10-16T06:19:29;16.20;80.80
31379;DHT22;61664;48.112;11.662;2022-10-16T06:21:56;16.20;81.30
31379;DHT22;61664;48.112;11.662;2022-10-16T06:24:24;16.20;80.80
31379;DHT22;61664;48.112;11.662;2022-10-16T06:26:51;16.20;80.80
31379;DHT22;61664;48.112;11.662;2022-10-16T06:29:18;16.30;80.80
31379;DHT22;61664;48.112;11.662;2022-10-16T06:31:45;16.30;80.80
31379;DHT22;61664;48.112;11.662;2022-10-16T06:34:12;16.30;80.80
31379;DHT22;61664;48.112;11.662;2022-10-16T06:36:39;16.40;80.90
31379;DHT22;61664;48.112;11.662;2022-10-16T06:39:06;16.40;80.90
31379;DHT22;61664;48.112;11.662;2022-10-16T06:41:34;16.40;80.90
31379;DHT22;61664;48.112;11.662;2022-10-16T06:44:04;16.50;81.00
31379;DHT22;61664;48.112;11.662;2022-10-16T06:46:31;16.50;80.90
31379;DHT22;61664;48.112;11.662;2022-10-16T06:48:58;16.60;80.90
31379;DHT22;61664;48.112;11.662;2022-10-16T06:51:25;16.60;80.70
31379;DHT22;61664;48.112;11.662;2022-10-16T06:53:54;16.60;80.60
31379;DHT22;61664;48.112;11.662;2022-10-16T06:56:31;16.70;80.40
31379;DHT22;61664;48.112;11.662;2022-10-16T06:58:59;16.70;80.50
31379;DHT22;61664;48.112;11.662;2022-10-16T07:01:26;16.70;80.60
31379;DHT22;61664;48.112;11.662;2022-10-16T07:03:54;16.80;80.60
31379;DHT22;61664;48.112;11.662;2022-10-16T07:06:24;16.90;80.60
31379;DHT22;61664;48.112;11.662;2022-10-16T07:08:52;16.90;80.00
31379;DHT22;61664;48.112;11.662;2022-10-16T07:11:21;16.90;80.50
31379;DHT22;61664;48.112;11.662;2022-10-16T07:13:50;17.00;80.20
31379;DHT22;61664;48.112;11.662;2022-10-16T07:16:24;17.10;80.30
31379;DHT22;61664;48.112;11.662;2022-10-16T07:19:00;17.10;80.10
31379;DHT22;61664;48.112;11.662;2022-10-16T07:21:30;17.20;80.40
31379;DHT22;61664;48.112;11.662;2022-10-16T07:24:02;17.20;80.30
31379;DHT22;61664;48.112;11.662;2022-10-16T07:26:32;17.40;81.50
31379;DHT22;61664;48.112;11.662;2022-10-16T07:29:00;17.60;83.20
31379;DHT22;61664;48.112;11.662;2022-10-16T07:31:28;17.90;84.70
31379;DHT22;61664;48.112;11.662;2022-10-16T07:33:55;18.30;85.60
31379;DHT22;61664;48.112;11.662;2022-10-16T07:36:24;18.90;85.50
31379;DHT22;61664;48.112;11.662;2022-10-16T07:38:51;19.50;85.30
31379;DHT22;61664;48.112;11.662;2022-10-16T07:41:24;20.10;84.60
31379;DHT22;61664;48.112;11.662;2022-10-16T07:43:52;20.70;82.70
31379;DHT22;61664;48.112;11.662;2022-10-16T07:46:21;21.20;81.10
31379;DHT22;61664;48.112;11.662;2022-10-16T07:48:49;21.60;80.80
31379;DHT22;61664;48.112;11.662;2022-10-16T07:51:19;22.00;80.00
31379;DHT22;61664;48.112;11.662;2022-10-16T07:53:47;22.50;78.60
31379;DHT22;61664;48.112;11.662;2022-10-16T07:56:15;22.90;79.00
31379;DHT22;61664;48.112;11.662;2022-10-16T07:58:43;23.30;78.10
31379;DHT22;61664;48.112;11.662;2022-10-16T08:01:13;23.80;77.10
31379;DHT22;61664;48.112;11.662;2022-10-16T08:03:46;24.20;75.90
31379;DHT22;61664;48.112;11.662;2022-10-16T08:06:15;24.70;73.30
31379;DHT22;61664;48.112;11.662;2022-10-16T08:08:43;25.10;73.20
31379;DHT22;61664;48.112;11.662;2022-10-16T08:11:10;25.30;70.70
31379;DHT22;61664;48.112;11.662;2022-10-16T08:13:37;25.30;69.30
31379;DHT22;61664;48.112;11.662;2022-10-16T08:16:04;25.40;69.20
31379;DHT22;61664;48.112;11.662;2022-10-16T08:18:38;25.40;69.80
31379;DHT22;61664;48.112;11.662;2022-10-16T08:21:08;25.60;67.40
31379;DHT22;61664;48.112;11.662;2022-10-16T08:23:46;25.90;70.40
31379;DHT22;61664;48.112;11.662;2022-10-16T08:26:22;26.40;70.00
31379;DHT22;61664;48.112;11.662;2022-10-16T08:28:50;26.70;72.40
31379;DHT22;61664;48.112;11.662;2022-10-16T08:31:18;27.20;70.90
31379;DHT22;61664;48.112;11.662;2022-10-16T08:33:45;27.60;69.30
31379;DHT22;61664;48.112;11.662;2022-10-16T08:36:14;27.90;68.10
31379;DHT22;61664;48.112;11.662;2022-10-16T08:38:42;28.30;67.30
31379;DHT22;61664;48.112;11.662;2022-10-16T08:42:31;28.60;65.80
31379;DHT22;61664;48.112;11.662;2022-10-16T08:50:29;29.50;58.40
31379;DHT22;61664;48.112;11.662;2022-10-16T08:52:58;29.80;62.90
31379;DHT22;61664;48.112;11.662;2022-10-16T08:55:28;30.00;61.30
31379;DHT22;61664;48.112;11.662;2022-10-16T08:58:00;30.20;61.20
31379;DHT22;61664;48.112;11.662;2022-10-16T09:00:27;30.50;61.20
31379;DHT22;61664;48.112;11.662;2022-10-16T09:03:22;30.70;60.80
31379;DHT22;61664;48.112;11.662;2022-10-16T09:17:48;31.20;53.80
31379;DHT22;61664;48.112;11.662;2022-10-16T09:20:10;31.10;50.70
31379;DHT22;61664;48.112;11.662;2022-10-16T09:22:39;31.10;56.20
31379;DHT22;61664;48.112;11.662;2022-10-16T09:25:18;31.10;56.00
31379;DHT22;61664;48.112;11.662;2022-10-16T09:27:48;31.10;52.10
31379;DHT22;61664;48.112;11.662;2022-10-16T09:30:18;31.30;57.20
31379;DHT22;61664;48.112;11.662;2022-10-16T09:32:49;31.40;56.90
31379;DHT22;61664;48.112;11.662;2022-10-16T09:35:31;31.50;57.50
31379;DHT22;61664;48.112;11.662;2022-10-16T09:38:01;31.50;55.10
31379;DHT22;61664;48.112;11.662;2022-10-16T09:40:31;31.70;56.10
31379;DHT22;61664;48.112;11.662;2022-10-16T09:43:33;31.70;54.50
31379;DHT22;61664;48.112;11.662;2022-10-16T09:46:28;31.80;49.60
31379;DHT22;61664;48.112;11.662;2022-10-16T09:49:05;31.90;46.70
31379;DHT22;61664;48.112;11.662;2022-10-16T09:51:48;32.00;54.20
31379;DHT22;61664;48.112;11.662;2022-10-16T09:54:19;32.20;55.70
31379;DHT22;61664;48.112;11.662;2022-10-16T09:56:48;32.40;51.10
31379;DHT22;61664;48.112;11.662;2022-10-16T09:59:20;32.50;54.00
31379;DHT22;61664;48.112;11.662;2022-10-16T10:01:53;32.60;53.10
31379;DHT22;61664;48.112;11.662;2022-10-16T10:04:23;32.70;53.30
31379;DHT22;61664;48.112;11.662;2022-10-16T10:06:54;32.90;53.30
31379;DHT22;61664;48.112;11.662;2022-10-16T10:09:28;33.10;53.20
31379;DHT22;61664;48.112;11.662;2022-10-16T10:12:25;33.30;47.40
31379;DHT22;61664;48.112;11.662;2022-10-16T10:15:07;33.40;44.60
31379;DHT22;61664;48.112;11.662;2022-10-16T10:17:55;33.40;46.20
31379;DHT22;61664;48.112;11.662;2022-10-16T10:20:25;33.50;47.60
31379;DHT22;61664;48.112;11.662;2022-10-16T10:22:57;33.70;53.20
31379;DHT22;61664;48.112;11.662;2022-10-16T10:28:41;34.30;50.80
31379;DHT22;61664;48.112;11.662;2022-10-16T10:31:52;34.80;46.30
31379;DHT22;61664;48.112;11.662;2022-10-16T10:40:49;35.50;46.00
31379;DHT22;61664;48.112;11.662;2022-10-16T10:46:03;35.20;46.60
31379;DHT22;61664;48.112;11.662;2022-10-16T10:49:07;34.80;41.70
31379;DHT22;61664;48.112;11.662;2022-10-16T10:54:46;33.90;41.50
31379;DHT22;61664;48.112;11.662;2022-10-16T10:57:32;33.30;41.80
31379;DHT22;61664;48.112;11.662;2022-10-16T11:03:53;32.10;44.70
31379;DHT22;61664;48.112;11.662;2022-10-16T11:06:34;31.50;43.70
31379;DHT22;61664;48.112;11.662;2022-10-16T11:09:41;31.10;43.00
31379;DHT22;61664;48.112;11.662;2022-10-16T11:12:30;30.70;41.40
31379;DHT22;61664;48.112;11.662;2022-10-16T11:15:07;30.40;44.10
31379;DHT22;61664;48.112;11.662;2022-10-16T11:18:22;30.10;47.60
31379;DHT22;61664;48.112;11.662;2022-10-16T11:21:04;29.70;43.90
31379;DHT22;61664;48.112;11.662;2022-10-16T11:24:00;29.30;42.60
31379;DHT22;61664;48.112;11.662;2022-10-16T11:26:39;29.00;44.40
31379;DHT22;61664;48.112;11.662;2022-10-16T11:29:22;28.70;45.60
31379;DHT22;61664;48.112;11.662;2022-10-16T11:31:57;28.40;43.80
31379;DHT22;61664;48.112;11.662;2022-10-16T11:37:12;27.90;46.50
31379;DHT22;61664;48.112;11.662;2022-10-16T11:39:46;27.70;45.50
31379;DHT22;61664;48.112;11.662;2022-10-16T11:42:21;27.50;48.80
31379;DHT22;61664;48.112;11.662;2022-10-16T11:50:36;27.20;48.10
31379;DHT22;61664;48.112;11.662;2022-10-16T11:53:14;27.10;46.20
31379;DHT22;61664;48.112;11.662;2022-10-16T11:55:54;27.00;49.00
31379;DHT22;61664;48.112;11.662;2022-10-16T11:58:29;27.00;49.20
31379;DHT22;61664;48.112;11.662;2022-10-16T12:01:26;26.90;45.20
31379;DHT22;61664;48.112;11.662;2022-10-16T12:07:16;26.90;45.80
31379;DHT22;61664;48.112;11.662;2022-10-16T12:09:48;26.80;45.60
31379;DHT22;61664;48.112;11.662;2022-10-16T12:12:39;26.80;49.50
31379;DHT22;61664;48.112;11.662;2022-10-16T12:15:34;26.80;42.60
31379;DHT22;61664;48.112;11.662;2022-10-16T12:18:22;26.90;42.40
31379;DHT22;61664;48.112;11.662;2022-10-16T12:20:58;26.90;48.50
31379;DHT22;61664;48.112;11.662;2022-10-16T12:23:53;26.90;46.00
31379;DHT22;61664;48.112;11.662;2022-10-16T12:26:31;26.90;48.20
31379;DHT22;61664;48.112;11.662;2022-10-16T12:29:14;27.00;44.00
31379;DHT22;61664;48.112;11.662;2022-10-16T12:32:02;26.90;42.50
31379;DHT22;61664;48.112;11.662;2022-10-16T12:34:41;26.90;48.30
31379;DHT22;61664;48.112;11.662;2022-10-16T12:37:22;27.00;45.00
31379;DHT22;61664;48.112;11.662;2022-10-16T12:39:55;27.00;43.10
31379;DHT22;61664;48.112;11.662;2022-10-16T12:42:31;27.00;45.80
31379;DHT22;61664;48.112;11.662;2022-10-16T12:45:00;27.00;48.10
31379;DHT22;61664;48.112;11.662;2022-10-16T12:49:58;27.00;47.00
31379;DHT22;61664;48.112;11.662;2022-10-16T12:52:39;27.00;48.30
31379;DHT22;61664;48.112;11.662;2022-10-16T12:55:17;27.10;43.30
31379;DHT22;61664;48.112;11.662;2022-10-16T12:58:03;27.10;44.50
31379;DHT22;61664;48.112;11.662;2022-10-16T13:14:52;27.30;44.30
31379;DHT22;61664;48.112;11.662;2022-10-16T13:17:29;27.40;48.30
31379;DHT22;61664;48.112;11.662;2022-10-16T13:20:35;27.40;48.40
31379;DHT22;61664;48.112;11.662;2022-10-16T13:23:17;27.50;44.90
31379;DHT22;61664;48.112;11.662;2022-10-16T13:26:35;27.50;45.40
31379;DHT22;61664;48.112;11.662;2022-10-16T13:29:04;27.50;45.10
31379;DHT22;61664;48.112;11.662;2022-10-16T13:31:32;27.60;48.50
31379;DHT22;61664;48.112;11.662;2022-10-16T13:34:01;27.60;48.00
31379;DHT22;61664;48.112;11.662;2022-10-16T13:36:33;27.60;48.00
31379;DHT22;61664;48.112;11.662;2022-10-16T13:41:44;27.70;44.90
31379;DHT22;61664;48.112;11.662;2022-10-16T13:44:15;27.70;48.20
31379;DHT22;61664;48.112;11.662;2022-10-16T13:46:46;27.80;47.40
31379;DHT22;61664;48.112;11.662;2022-10-16T13:49:24;27.90;48.80
31379;DHT22;61664;48.112;11.662;2022-10-16T13:51:58;27.90;48.60
31379;DHT22;61664;48.112;11.662;2022-10-16T13:54:27;28.00;45.70
31379;DHT22;61664;48.112;11.662;2022-10-16T13:57:05;28.20;49.00
31379;DHT22;61664;48.112;11.662;2022-10-16T13:59:53;28.20;45.50
31379;DHT22;61664;48.112;11.662;2022-10-16T14:02:37;28.40;48.80
31379;DHT22;61664;48.112;11.662;2022-10-16T14:05:09;28.60;46.10
31379;DHT22;61664;48.112;11.662;2022-10-16T14:07:37;28.70;47.50
31379;DHT22;61664;48.112;11.662;2022-10-16T14:10:07;28.90;49.00
31379;DHT22;61664;48.112;11.662;2022-10-16T14:13:03;29.30;49.30
31379;DHT22;61664;48.112;11.662;2022-10-16T14:15:33;29.60;46.10
31379;DHT22;61664;48.112;11.662;2022-10-16T14:18:02;30.10;50.50
31379;DHT22;61664;48.112;11.662;2022-10-16T14:20:31;30.40;49.50
31379;DHT22;61664;48.112;11.662;2022-10-16T14:23:18;30.80;50.90
31379;DHT22;61664;48.112;11.662;2022-10-16T14:25:49;31.30;47.10
31379;DHT22;61664;48.112;11.662;2022-10-16T14:28:21;31.60;49.20
31379;DHT22;61664;48.112;11.662;2022-10-16T14:30:57;31.70;44.80
31379;DHT22;61664;48.112;11.662;2022-10-16T14:36:06;32.00;44.90
31379;DHT22;61664;48.112;11.662;2022-10-16T14:38:41;32.00;42.40
31379;DHT22;61664;48.112;11.662;2022-10-16T14:41:09;31.90;45.20
31379;DHT22;61664;48.112;11.662;2022-10-16T14:43:38;31.90;45.40
31379;DHT22;61664;48.112;11.662;2022-10-16T14:46:13;31.90;44.90
31379;DHT22;61664;48.112;11.662;2022-10-16T14:48:45;32.00;42.90
31379;DHT22;61664;48.112;11.662;2022-10-16T14:51:19;32.30;46.40
31379;DHT22;61664;48.112;11.662;2022-10-16T14:53:46;32.60;44.60
31379;DHT22;61664;48.112;11.662;2022-10-16T14:56:23;32.90;47.40
31379;DHT22;61664;48.112;11.662;2022-10-16T14:58:52;33.20;43.20
31379;DHT22;61664;48.112;11.662;2022-10-16T15:01:20;33.40;46.50
31379;DHT22;61664;48.112;11.662;2022-10-16T15:03:46;33.40;46.20
31379;DHT22;61664;48.112;11.662;2022-10-16T15:06:15;33.40;45.80
31379;DHT22;61664;48.112;11.662;2022-10-16T15:08:42;33.30;45.50
31379;DHT22;61664;48.112;11.662;2022-10-16T15:11:13;33.10;45.40
31379;DHT22;61664;48.112;11.662;2022-10-16T15:13:42;32.80;43.50
31379;DHT22;61664;48.112;11.662;2022-10-16T15:16:14;32.50;44.70
31379;DHT22;61664;48.112;11.662;2022-10-16T15:18:43;32.20;42.70
31379;DHT22;61664;48.112;11.662;2022-10-16T15:21:30;31.70;44.50
31379;DHT22;61664;48.112;11.662;2022-10-16T15:23:59;31.40;42.50
31379;DHT22;61664;48.112;11.662;2022-10-16T15:26:28;30.90;44.80
31379;DHT22;61664;48.112;11.662;2022-10-16T15:28:56;30.50;44.80
31379;DHT22;61664;48.112;11.662;2022-10-16T15:31:24;30.20;45.60
31379;DHT22;61664;48.112;11.662;2022-10-16T15:33:52;29.90;45.80
31379;DHT22;61664;48.112;11.662;2022-10-16T15:36:26;29.60;46.00
31379;DHT22;61664;48.112;11.662;2022-10-16T15:38:57;29.20;45.90
31379;DHT22;61664;48.112;11.662;2022-10-16T15:41:23;28.90;46.60
31379;DHT22;61664;48.112;11.662;2022-10-16T15:43:51;28.70;46.90
31379;DHT22;61664;48.112;11.662;2022-10-16T15:46:20;28.40;47.30
31379;DHT22;61664;48.112;11.662;2022-10-16T15:48:49;28.20;47.20
31379;DHT22;61664;48.112;11.662;2022-10-16T15:51:18;28.00;47.70
31379;DHT22;61664;48.112;11.662;2022-10-16T15:53:45;27.70;48.10
31379;DHT22;61664;48.112;11.662;2022-10-16T15:56:13;27.50;48.60
31379;DHT22;61664;48.112;11.662;2022-10-16T15:58:40;27.30;48.80
31379;DHT22;61664;48.112;11.662;2022-10-16T16:01:09;27.10;49.20
31379;DHT22;61664;48.112;11.662;2022-10-16T16:03:38;26.90;49.10
31379;DHT22;61664;48.112;11.662;2022-10-16T16:06:10;26.60;49.40
31379;DHT22;61664;48.112;11.662;2022-10-16T16:08:39;26.40;49.70
31379;DHT22;61664;48.112;11.662;2022-10-16T16:11:08;26.30;50.00
31379;DHT22;61664;48.112;11.662;2022-10-16T16:13:37;26.00;50.00
31379;DHT22;61664;48.112;11.662;2022-10-16T16:16:06;25.80;50.50
31379;DHT22;61664;48.112;11.662;2022-10-16T16:18:34;25.70;50.70
31379;DHT22;61664;48.112;11.662;2022-10-16T16:21:02;25.50;51.10
31379;DHT22;61664;48.112;11.662;2022-10-16T16:23:29;25.30;51.20
31379;DHT22;61664;48.112;11.662;2022-10-16T16:28:42;24.90;50.10
31379;DHT22;61664;48.112;11.662;2022-10-16T16:31:09;24.80;51.90
31379;DHT22;61664;48.112;11.662;2022-10-16T16:33:36;24.60;52.30
31379;DHT22;61664;48.112;11.662;2022-10-16T16:36:05;24.50;53.10
31379;DHT22;61664;48.112;11.662;2022-10-16T16:38:40;24.30;52.80
31379;DHT22;61664;48.112;11.662;2022-10-16T16:41:14;24.20;53.10
31379;DHT22;61664;48.112;11.662;2022-10-16T16:43:42;24.00;52.40
31379;DHT22;61664;48.112;11.662;2022-10-16T16:46:10;23.90;53.70
31379;DHT22;61664;48.112;11.662;2022-10-16T16:48:37;23.80;54.00
31379;DHT22;61664;48.112;11.662;2022-10-16T16:51:06;23.70;54.30
31379;DHT22;61664;48.112;11.662;2022-10-16T16:53:35;23.50;54.60
31379;DHT22;61664;48.112;11.662;2022-10-16T16:56:04;23.40;54.90
31379;DHT22;61664;48.112;11.662;2022-10-16T16:58:32;23.40;55.20
31379;DHT22;61664;48.112;11.662;2022-10-16T17:01:00;23.20;55.30
31379;DHT22;61664;48.112;11.662;2022-10-16T17:03:46;23.10;55.50
31379;DHT22;61664;48.112;11.662;2022-10-16T17:06:17;23.00;55.70
31379;DHT22;61664;48.112;11.662;2022-10-16T17:08:49;22.90;56.00
31379;DHT22;61664;48.112;11.662;2022-10-16T17:11:18;22.80;56.20
31379;DHT22;61664;48.112;11.662;2022-10-16T17:13:48;22.70;56.40